createdAt,value
2022-09-17T00:01:25.215Z,13.57
2022-09-17T00:03:57.409Z,13.49
2022-09-17T00:06:25.296Z,13.45
2022-09-17T00:08:53.994Z,13.36
2022-09-17T00:11:28.388Z,13.43
2022-09-17T00:13:56.344Z,13.47
2022-09-17T00:16:28.870Z,13.37
2022-09-17T00:18:56.676Z,13.32
2022-09-17T00:21:24.331Z,13.22
2022-09-17T00:23:56.612Z,13.16
2022-09-17T00:26:24.274Z,13.10
2022-09-17T00:28:52.898Z,13.06
2022-09-17T00:31:21.242Z,13.03
2022-09-17T00:33:49.033Z,13.00
2022-09-17T00:36:16.744Z,12.88
2022-09-17T00:38:44.334Z,12.82
2022-09-17T00:41:12.290Z,12.77
2022-09-17T00:43:46.047Z,12.94
2022-09-17T00:46:20.110Z,13.05
2022-09-17T00:48:48.477Z,13.02
2022-09-17T00:51:18.669Z,12.95
2022-09-17T00:53:46.756Z,13.09
2022-09-17T00:56:23.163Z,13.04
2022-09-17T00:58:51.636Z,12.95
2022-09-17T01:01:19.356Z,12.96
2022-09-17T01:03:46.941Z,12.99
2022-09-17T01:06:23.429Z,13.18
2022-09-17T01:09:00.655Z,13.31
2022-09-17T01:11:40.195Z,13.38
2022-09-17T01:14:10.662Z,13.37
2022-09-17T01:16:44.715Z,13.30
2022-09-17T01:19:37.005Z,13.15
2022-09-17T01:22:09.004Z,13.15
2022-09-17T01:24:49.143Z,13.14
2022-09-17T01:27:48.145Z,13.03
2022-09-17T01:30:40.176Z,12.88
2022-09-17T01:33:15.877Z,12.76
2022-09-17T01:35:53.532Z,12.71
2022-09-17T01:38:24.175Z,12.70
2022-09-17T01:41:07.977Z,12.67
2022-09-17T01:43:50.227Z,12.70
2022-09-17T01:46:23.118Z,12.79
2022-09-17T01:48:52.234Z,12.75
2022-09-17T01:51:22.980Z,12.66
2022-09-17T01:53:58.051Z,12.53
2022-09-17T01:56:28.461Z,12.48
2022-09-17T01:59:03.557Z,12.39
2022-09-17T02:01:32.871Z,12.30
2022-09-17T02:04:06.959Z,12.27
2022-09-17T02:06:36.381Z,12.14
2022-09-17T02:09:22.798Z,12.16
2022-09-17T02:11:55.809Z,12.14
2022-09-17T02:14:29.221Z,12.08
2022-09-17T02:17:00.918Z,12.07
2022-09-17T02:19:29.360Z,12.03
2022-09-17T02:22:04.321Z,11.96
2022-09-17T02:24:53.095Z,11.90
2022-09-17T02:27:32.718Z,11.87
2022-09-17T02:30:00.282Z,11.83
2022-09-17T02:32:27.836Z,11.78
2022-09-17T02:34:55.382Z,11.79
2022-09-17T02:37:22.965Z,11.73
2022-09-17T02:39:50.592Z,11.68
2022-09-17T02:42:54.152Z,11.65
2022-09-17T02:45:36.901Z,11.61
2022-09-17T02:48:46.171Z,11.56
2022-09-17T02:51:40.438Z,11.53
2022-09-17T02:54:18.915Z,11.52
2022-09-17T02:57:09.148Z,11.47
2022-09-17T02:59:52.693Z,11.47
2022-09-17T03:02:45.421Z,11.45
2022-09-17T03:05:13.580Z,11.42
2022-09-17T03:07:41.958Z,11.41
2022-09-17T03:10:09.834Z,11.43
2022-09-17T03:12:41.196Z,11.47
2022-09-17T03:15:09.121Z,11.43
2022-09-17T03:17:37.448Z,11.41
2022-09-17T03:20:05.826Z,11.39
2022-09-17T03:22:33.440Z,11.37
2022-09-17T03:25:01.016Z,11.36
2022-09-17T03:27:28.518Z,11.40
2022-09-17T03:29:56.254Z,11.46
2022-09-17T03:32:23.840Z,11.48
2022-09-17T03:34:51.824Z,11.49
2022-09-17T03:37:19.452Z,11.57
2022-09-17T03:39:47.158Z,11.71
2022-09-17T03:42:14.821Z,11.81
2022-09-17T03:44:45.328Z,12.04
2022-09-17T03:47:13.166Z,12.48
2022-09-17T03:49:40.799Z,12.89
2022-09-17T03:52:08.470Z,13.31
2022-09-17T03:54:36.667Z,13.61
2022-09-17T03:57:04.377Z,13.95
2022-09-17T03:59:32.119Z,14.34
2022-09-17T04:01:59.734Z,14.61
2022-09-17T04:04:27.420Z,14.93
2022-09-17T04:06:55.178Z,15.23
2022-09-17T04:09:26.886Z,15.43
2022-09-17T04:11:55.030Z,15.59
2022-09-17T04:14:22.645Z,15.69
2022-09-17T04:16:50.203Z,15.65
2022-09-17T04:19:18.749Z,15.52
2022-09-17T04:21:46.412Z,15.44
2022-09-17T04:24:13.988Z,15.37
2022-09-17T04:26:41.967Z,15.39
2022-09-17T04:29:10.274Z,15.55
2022-09-17T04:31:38.469Z,15.85
2022-09-17T04:34:06.342Z,16.40
2022-09-17T04:36:33.953Z,17.11
2022-09-17T04:39:01.470Z,17.69
2022-09-17T04:41:29.126Z,18.21
2022-09-17T04:43:56.685Z,18.29
2022-09-17T04:46:24.372Z,18.18
2022-09-17T04:48:51.961Z,18.35
2022-09-17T04:51:19.523Z,18.68
2022-09-17T04:53:47.049Z,18.44
2022-09-17T04:56:14.623Z,18.16
2022-09-17T04:58:42.197Z,17.98
2022-09-17T05:01:14.006Z,17.95
2022-09-17T05:03:41.814Z,18.06
2022-09-17T05:06:09.405Z,18.20
2022-09-17T05:08:38.192Z,18.24
2022-09-17T05:11:05.720Z,18.42
2022-09-17T05:13:33.340Z,18.79
2022-09-17T05:16:00.891Z,18.67
2022-09-17T05:18:29.451Z,18.85
2022-09-17T05:20:57.005Z,19.19
2022-09-17T05:23:24.673Z,19.32
2022-09-17T05:25:53.176Z,19.32
2022-09-17T05:28:20.772Z,19.44
2022-09-17T05:30:48.268Z,19.25
2022-09-17T05:33:15.841Z,19.34
2022-09-17T05:35:44.798Z,19.35
2022-09-17T05:38:12.425Z,19.36
2022-09-17T05:40:40.374Z,19.41
2022-09-17T05:43:08.120Z,19.52
2022-09-17T05:45:37.704Z,19.69
2022-09-17T05:48:07.497Z,19.87
2022-09-17T05:50:35.746Z,20.00
2022-09-17T05:53:08.008Z,19.82
2022-09-17T05:55:36.317Z,19.87
2022-09-17T05:58:13.989Z,19.69
2022-09-17T06:00:41.994Z,19.72
2022-09-17T06:03:13.479Z,19.60
2022-09-17T06:05:41.357Z,19.56
2022-09-17T06:08:09.929Z,19.61
2022-09-17T06:10:38.711Z,19.84
2022-09-17T06:13:06.304Z,20.03
2022-09-17T06:15:34.384Z,20.26
2022-09-17T06:18:02.004Z,20.55
2022-09-17T06:20:29.676Z,20.40
2022-09-17T06:22:57.989Z,20.33
2022-09-17T06:25:26.575Z,20.15
2022-09-17T06:27:54.170Z,20.43
2022-09-17T06:30:21.677Z,20.66
2022-09-17T06:32:49.959Z,20.85
2022-09-17T06:35:20.373Z,21.00
2022-09-17T06:37:48.916Z,21.03
2022-09-17T06:40:16.542Z,21.40
2022-09-17T06:42:44.186Z,21.46
2022-09-17T06:45:15.956Z,21.23
2022-09-17T06:47:46.134Z,21.16
2022-09-17T06:50:13.814Z,21.19
2022-09-17T06:52:51.300Z,21.45
2022-09-17T06:55:18.986Z,21.20
2022-09-17T06:57:46.694Z,21.14
2022-09-17T07:00:14.972Z,21.22
2022-09-17T07:02:42.749Z,21.15
2022-09-17T07:05:11.511Z,21.26
2022-09-17T07:07:41.361Z,21.53
2022-09-17T07:10:09.176Z,21.65
2022-09-17T07:12:40.758Z,21.51
2022-09-17T07:15:11.513Z,21.48
2022-09-17T07:17:40.324Z,21.55
2022-09-17T07:20:08.688Z,21.74
2022-09-17T07:22:36.605Z,21.95
2022-09-17T07:25:06.135Z,21.97
2022-09-17T07:27:33.685Z,21.89
2022-09-17T07:30:01.172Z,21.87
2022-09-17T07:32:31.948Z,22.13
2022-09-17T07:34:59.496Z,21.98
2022-09-17T07:37:27.783Z,22.28
2022-09-17T07:39:55.773Z,22.56
2022-09-17T07:42:23.273Z,22.66
2022-09-17T07:44:51.006Z,22.52
2022-09-17T07:47:18.501Z,22.63
2022-09-17T07:49:46.685Z,22.88
2022-09-17T07:52:14.730Z,22.74
2022-09-17T07:54:42.603Z,22.79
2022-09-17T07:57:10.233Z,22.84
2022-09-17T07:59:37.839Z,23.06
2022-09-17T08:02:05.439Z,22.89
2022-09-17T08:04:33.057Z,23.15
2022-09-17T08:07:01.826Z,23.28
2022-09-17T08:09:29.716Z,23.35
2022-09-17T08:11:57.559Z,23.11
2022-09-17T08:14:29.507Z,23.19
2022-09-17T08:16:58.175Z,23.18
2022-09-17T08:19:25.740Z,23.38
2022-09-17T08:21:53.288Z,23.43
2022-09-17T08:24:21.076Z,23.64
2022-09-17T08:26:48.922Z,23.40
2022-09-17T08:29:16.615Z,23.46
2022-09-17T08:31:44.866Z,23.64
2022-09-17T08:34:12.405Z,23.62
2022-09-17T08:36:39.954Z,23.51
2022-09-17T08:39:08.273Z,23.47
2022-09-17T08:41:51.588Z,23.69
2022-09-17T08:44:34.594Z,23.64
2022-09-17T08:47:15.560Z,23.59
2022-09-17T08:49:58.988Z,23.35
2022-09-17T08:52:57.898Z,23.32
2022-09-17T08:55:34.066Z,23.34
2022-09-17T08:58:04.442Z,23.23
2022-09-17T09:01:02.043Z,23.07
2022-09-17T09:03:37.627Z,22.77
2022-09-17T09:06:10.881Z,22.98
2022-09-17T09:08:45.636Z,23.05
2022-09-17T09:11:26.375Z,23.10
2022-09-17T09:13:55.989Z,22.94
2022-09-17T09:16:26.274Z,23.06
2022-09-17T09:19:13.360Z,23.10
2022-09-17T09:21:49.244Z,23.13
2022-09-17T09:24:24.276Z,23.17
2022-09-17T09:26:58.748Z,23.15
2022-09-17T09:29:54.232Z,23.00
2022-09-17T09:32:38.063Z,23.05
2022-09-17T09:35:15.665Z,22.90
2022-09-17T09:37:45.372Z,22.94
2022-09-17T09:40:37.882Z,23.12
2022-09-17T09:43:29.629Z,23.36
2022-09-17T09:46:21.576Z,23.63
2022-09-17T09:49:09.088Z,23.83
2022-09-17T09:52:01.205Z,23.86
2022-09-17T09:54:47.265Z,23.98
2022-09-17T09:57:16.424Z,24.05
2022-09-17T09:59:43.949Z,24.03
2022-09-17T10:02:11.712Z,24.06
2022-09-17T10:04:39.922Z,23.92
2022-09-17T10:07:11.385Z,23.88
2022-09-17T10:09:39.758Z,23.90
2022-09-17T10:12:11.032Z,23.75
2022-09-17T10:14:39.776Z,23.86
2022-09-17T10:17:14.227Z,23.85
2022-09-17T10:19:42.425Z,23.85
2022-09-17T10:22:22.263Z,23.73
2022-09-17T10:24:49.756Z,23.60
2022-09-17T10:27:19.247Z,23.62
2022-09-17T10:29:49.278Z,23.63
2022-09-17T10:32:20.510Z,23.63
2022-09-17T10:34:58.022Z,23.45
2022-09-17T10:37:51.346Z,23.40
2022-09-17T10:40:18.935Z,23.34
2022-09-17T10:42:51.177Z,23.32
2022-09-17T10:45:28.994Z,23.15
2022-09-17T10:47:57.120Z,22.97
2022-09-17T10:50:31.696Z,22.83
2022-09-17T10:53:04.497Z,22.63
2022-09-17T10:55:38.364Z,22.60
2022-09-17T10:58:08.828Z,22.56
2022-09-17T11:00:59.240Z,22.43
2022-09-17T11:03:45.748Z,22.23
2022-09-17T11:06:25.481Z,22.06
2022-09-17T11:09:20.489Z,21.84
2022-09-17T11:12:00.900Z,21.87
2022-09-17T11:14:49.942Z,21.78
2022-09-17T11:17:41.931Z,21.66
2022-09-17T11:20:40.511Z,21.59
2022-09-17T11:23:32.884Z,21.52
2022-09-17T11:26:13.411Z,21.35
2022-09-17T11:28:59.226Z,21.29
2022-09-17T11:32:04.331Z,21.38
2022-09-17T11:34:35.135Z,21.43
2022-09-17T11:37:22.801Z,21.50
2022-09-17T11:39:55.413Z,21.51
2022-09-17T11:42:54.544Z,21.58
2022-09-17T11:45:29.809Z,21.64
2022-09-17T11:48:17.780Z,21.73
2022-09-17T11:51:13.895Z,21.66
2022-09-17T11:53:47.708Z,21.42
2022-09-17T11:56:23.274Z,21.47
2022-09-17T11:59:02.420Z,21.57
2022-09-17T12:01:49.789Z,21.73
2022-09-17T12:04:35.472Z,21.76
2022-09-17T12:07:38.840Z,22.01
2022-09-17T12:10:21.365Z,22.08
2022-09-17T12:13:00.536Z,22.24
2022-09-17T12:15:31.188Z,22.20
2022-09-17T12:18:33.042Z,22.08
2022-09-17T12:21:04.820Z,21.93
2022-09-17T12:23:42.640Z,21.98
2022-09-17T12:26:25.775Z,21.98
2022-09-17T12:29:08.236Z,21.95
2022-09-17T12:31:59.084Z,21.90
2022-09-17T12:34:33.910Z,21.95
2022-09-17T12:37:16.631Z,21.92
2022-09-17T12:39:58.726Z,21.82
2022-09-17T12:42:53.920Z,21.98
2022-09-17T12:45:48.573Z,22.04
2022-09-17T12:48:21.208Z,22.10
2022-09-17T12:51:10.031Z,22.07
2022-09-17T12:53:54.785Z,22.07
2022-09-17T12:56:50.207Z,22.11
2022-09-17T12:59:19.548Z,21.98
2022-09-17T13:01:56.331Z,21.81
2022-09-17T13:05:02.910Z,21.66
2022-09-17T13:07:46.168Z,21.70
2022-09-17T13:10:30.117Z,21.75
2022-09-17T13:13:22.559Z,21.58
2022-09-17T13:15:53.070Z,21.45
2022-09-17T13:18:27.675Z,21.28
2022-09-17T13:21:02.228Z,21.07
2022-09-17T13:23:46.061Z,21.03
2022-09-17T13:26:17.378Z,21.06
2022-09-17T13:28:47.434Z,21.34
2022-09-17T13:31:23.166Z,21.57
2022-09-17T13:34:15.031Z,21.69
2022-09-17T13:36:55.979Z,21.82
2022-09-17T13:39:43.856Z,21.74
2022-09-17T13:42:34.460Z,21.73
2022-09-17T13:45:16.299Z,21.33
2022-09-17T13:47:53.746Z,21.19
2022-09-17T13:50:42.009Z,21.22
2022-09-17T13:53:15.270Z,21.43
2022-09-17T13:55:46.089Z,21.87
2022-09-17T13:58:21.857Z,22.34
2022-09-17T14:01:04.620Z,22.81
2022-09-17T14:03:40.747Z,23.44
2022-09-17T14:06:08.713Z,23.57
2022-09-17T14:08:45.510Z,23.65
2022-09-17T14:11:29.354Z,23.36
2022-09-17T14:14:04.688Z,23.46
2022-09-17T14:16:40.615Z,23.23
2022-09-17T14:19:24.579Z,22.99
2022-09-17T14:21:57.531Z,22.81
2022-09-17T14:24:28.082Z,22.51
2022-09-17T14:27:05.901Z,22.17
2022-09-17T14:30:27.701Z,22.09
2022-09-17T14:33:01.394Z,21.87
2022-09-17T14:35:35.214Z,21.65
2022-09-17T14:38:14.245Z,21.53
2022-09-17T14:40:46.409Z,21.43
2022-09-17T14:43:22.449Z,21.29
2022-09-17T14:45:51.881Z,21.11
2022-09-17T14:48:30.229Z,21.12
2022-09-17T14:51:20.158Z,21.04
2022-09-17T14:53:49.769Z,21.00
2022-09-17T14:56:19.550Z,20.99
2022-09-17T14:58:49.078Z,20.94
2022-09-17T15:01:30.163Z,20.88
2022-09-17T15:04:12.961Z,20.85
2022-09-17T15:06:41.497Z,20.80
2022-09-17T15:09:25.772Z,20.79
2022-09-17T15:11:55.184Z,20.73
2022-09-17T15:14:24.198Z,20.65
2022-09-17T15:16:54.165Z,20.58
2022-09-17T15:19:34.089Z,20.57
2022-09-17T15:22:16.989Z,20.53
2022-09-17T15:24:48.022Z,20.41
2022-09-17T15:27:33.896Z,20.37
2022-09-17T15:30:06.610Z,20.27
2022-09-17T15:32:35.209Z,20.20
2022-09-17T15:35:11.749Z,20.18
2022-09-17T15:40:41.326Z,20.06
2022-09-17T15:43:28.429Z,20.01
2022-09-17T15:45:56.480Z,19.89
2022-09-17T15:48:28.129Z,19.77
2022-09-17T15:50:57.070Z,19.59
2022-09-17T15:53:28.759Z,19.47
2022-09-17T15:56:05.465Z,19.50
2022-09-17T15:58:42.657Z,19.51
2022-09-17T16:01:16.564Z,19.44
2022-09-17T16:03:44.522Z,19.41
2022-09-17T16:06:18.598Z,19.36
2022-09-17T16:08:47.707Z,19.31
2022-09-17T16:11:19.429Z,19.30
2022-09-17T16:13:48.163Z,19.27
2022-09-17T16:16:18.241Z,19.19
2022-09-17T16:18:46.048Z,19.13
2022-09-17T16:21:14.079Z,19.12
2022-09-17T16:23:41.758Z,19.11
2022-09-17T16:26:14.765Z,19.08
2022-09-17T16:28:42.580Z,19.05
2022-09-17T16:31:12.141Z,18.90
2022-09-17T16:33:40.011Z,18.76
2022-09-17T16:36:07.793Z,18.76
2022-09-17T16:38:36.057Z,18.75
2022-09-17T16:41:06.647Z,18.72
2022-09-17T16:43:35.669Z,18.68
2022-09-17T16:46:12.504Z,18.66
2022-09-17T16:48:41.292Z,18.67
2022-09-17T16:51:09.509Z,18.68
2022-09-17T16:53:37.610Z,18.71
2022-09-17T16:56:08.970Z,18.65
2022-09-17T16:58:37.286Z,18.67
2022-09-17T17:01:12.406Z,18.71
2022-09-17T17:03:40.147Z,18.73
2022-09-17T17:06:18.431Z,18.74
2022-09-17T17:08:45.942Z,18.71
2022-09-17T17:11:13.704Z,18.71
2022-09-17T17:13:44.616Z,18.74
2022-09-17T17:16:14.388Z,18.75
2022-09-17T17:18:45.221Z,18.72
2022-09-17T17:21:14.657Z,18.77
2022-09-17T17:23:47.234Z,18.74
2022-09-17T17:26:15.965Z,18.75
2022-09-17T17:28:43.517Z,18.67
2022-09-17T17:31:11.965Z,18.66
2022-09-17T17:33:40.556Z,18.58
2022-09-17T17:36:08.740Z,18.53
2022-09-17T17:38:36.869Z,18.50
2022-09-17T17:41:11.035Z,18.54
2022-09-17T17:43:38.581Z,18.54
2022-09-17T17:46:07.357Z,18.58
2022-09-17T17:48:35.950Z,18.55
2022-09-17T17:51:08.628Z,18.45
2022-09-17T17:53:36.639Z,18.44
2022-09-17T17:56:06.094Z,18.51
2022-09-17T17:58:34.217Z,18.53
2022-09-17T18:01:13.360Z,18.53
2022-09-17T18:03:41.029Z,18.54
2022-09-17T18:06:08.559Z,18.56
2022-09-17T18:08:40.085Z,18.55
2022-09-17T18:11:08.493Z,18.56
2022-09-17T18:13:37.212Z,18.49
2022-09-17T18:16:05.770Z,18.44
2022-09-17T18:18:44.131Z,18.43
2022-09-17T18:21:16.637Z,18.39
2022-09-17T18:23:44.222Z,18.37
2022-09-17T18:26:13.713Z,18.39
2022-09-17T18:28:41.325Z,18.34
2022-09-17T18:31:13.929Z,18.32
2022-09-17T18:33:41.828Z,18.29
2022-09-17T18:36:09.915Z,18.24
2022-09-17T18:38:40.888Z,18.18
2022-09-17T18:41:11.614Z,18.13
2022-09-17T18:43:40.203Z,18.04
2022-09-17T18:46:07.786Z,18.06
2022-09-17T18:48:36.665Z,17.98
2022-09-17T18:51:06.246Z,17.98
2022-09-17T18:53:36.312Z,18.00
2022-09-17T18:56:07.149Z,17.99
2022-09-17T18:58:35.557Z,18.00
2022-09-17T19:01:07.851Z,18.06
2022-09-17T19:03:35.397Z,18.05
2022-09-17T19:06:04.319Z,18.08
2022-09-17T19:08:32.230Z,18.08
2022-09-17T19:11:00.425Z,18.12
2022-09-17T19:13:32.989Z,18.12
2022-09-17T19:16:02.711Z,18.14
2022-09-17T19:18:30.446Z,18.16
2022-09-17T19:21:05.394Z,18.19
2022-09-17T19:23:34.390Z,18.18
2022-09-17T19:26:26.118Z,18.16
2022-09-17T19:28:54.388Z,18.20
2022-09-17T19:31:22.337Z,18.24
2022-09-17T19:33:50.667Z,18.33
2022-09-17T19:36:18.633Z,18.51
2022-09-17T19:38:46.347Z,18.54
2022-09-17T19:41:15.877Z,18.58
2022-09-17T19:43:43.488Z,18.60
2022-09-17T19:46:12.449Z,18.64
2022-09-17T19:48:48.017Z,18.65
2022-09-17T19:51:16.079Z,18.70
2022-09-17T19:53:43.988Z,18.74
2022-09-17T19:56:18.753Z,18.86
2022-09-17T19:58:46.752Z,18.89
2022-09-17T20:01:14.446Z,18.90
2022-09-17T20:03:43.340Z,18.94
2022-09-17T20:06:15.498Z,18.98
2022-09-17T20:08:50.604Z,19.01
2022-09-17T20:11:22.328Z,19.03
2022-09-17T20:13:50.328Z,19.03
2022-09-17T20:16:21.508Z,19.11
2022-09-17T20:18:49.313Z,19.12
2022-09-17T20:21:21.550Z,19.16
2022-09-17T20:23:49.515Z,19.23
2022-09-17T20:26:17.163Z,19.30
2022-09-17T20:28:44.965Z,19.32
2022-09-17T20:31:14.304Z,19.38
2022-09-17T20:33:42.055Z,19.46
2022-09-17T20:36:16.701Z,19.47
2022-09-17T20:41:32.515Z,19.51
2022-09-17T20:44:00.139Z,19.53
2022-09-17T20:46:29.347Z,19.58
2022-09-17T20:48:58.319Z,19.58
2022-09-17T20:51:27.710Z,19.59
2022-09-17T20:53:57.463Z,19.58
2022-09-17T20:56:27.316Z,19.59
2022-09-17T20:59:08.602Z,19.65
2022-09-17T21:01:37.948Z,19.61
2022-09-17T21:04:07.069Z,19.64
2022-09-17T21:06:36.510Z,19.65
2022-09-17T21:09:06.423Z,19.64
2022-09-17T21:11:34.567Z,19.64
2022-09-17T21:14:02.160Z,19.68
2022-09-17T21:16:30.188Z,19.69
2022-09-17T21:18:58.757Z,19.68
2022-09-17T21:21:26.522Z,19.64
2022-09-17T21:23:54.157Z,19.67
2022-09-17T21:26:23.210Z,19.66
2022-09-17T21:28:51.679Z,19.61
2022-09-17T21:31:21.206Z,19.66
2022-09-17T21:33:51.060Z,19.61
2022-09-17T21:36:19.968Z,19.59
2022-09-17T21:38:54.075Z,19.62
2022-09-17T21:41:22.297Z,19.61
2022-09-17T21:43:51.914Z,19.63
2022-09-17T21:46:24.145Z,19.69
2022-09-17T21:48:53.899Z,19.71
2022-09-17T21:51:48.645Z,19.72
2022-09-17T21:54:17.158Z,19.70
2022-09-17T21:56:45.020Z,19.73
2022-09-17T21:59:14.225Z,19.74
2022-09-17T22:01:45.910Z,19.77
2022-09-17T22:04:15.410Z,19.80
2022-09-17T22:06:43.292Z,19.80
2022-09-17T22:09:30.439Z,19.80
2022-09-17T22:11:59.823Z,19.76
2022-09-17T22:14:27.321Z,19.79
2022-09-17T22:16:55.627Z,19.78
2022-09-17T22:19:23.955Z,19.79
2022-09-17T22:21:53.137Z,19.80
2022-09-17T22:24:21.295Z,19.84
2022-09-17T22:26:56.571Z,19.84
2022-09-17T22:29:25.665Z,19.86
2022-09-17T22:31:53.713Z,19.82
2022-09-17T22:34:22.428Z,19.80
2022-09-17T22:36:50.477Z,19.84
2022-09-17T22:39:20.740Z,19.90
2022-09-17T22:41:50.283Z,19.84
2022-09-17T22:44:19.134Z,19.84
2022-09-17T22:46:48.725Z,19.85
2022-09-17T22:49:16.477Z,19.84
2022-09-17T22:51:45.252Z,19.90
2022-09-17T22:54:13.958Z,19.85
2022-09-17T22:56:41.518Z,19.90
2022-09-17T22:59:09.208Z,19.81
2022-09-17T23:01:37.442Z,19.82
2022-09-17T23:04:05.485Z,19.81
2022-09-17T23:06:35.208Z,19.79
2022-09-17T23:09:02.937Z,19.77
2022-09-17T23:11:32.303Z,19.75
2022-09-17T23:14:02.387Z,19.84
2022-09-17T23:16:37.901Z,19.79
2022-09-17T23:19:05.588Z,19.80
2022-09-17T23:21:33.430Z,19.78
2022-09-17T23:24:01.173Z,19.79
2022-09-17T23:26:29.181Z,19.81
2022-09-17T23:29:00.008Z,19.82
2022-09-17T23:31:35.019Z,19.81
2022-09-17T23:34:03.539Z,19.84
2022-09-17T23:36:36.639Z,19.79
2022-09-17T23:39:04.712Z,19.83
2022-09-17T23:41:33.707Z,19.81
2022-09-17T23:44:02.669Z,19.82
2022-09-17T23:46:31.965Z,19.83
2022-09-17T23:48:59.930Z,19.73
2022-09-17T23:51:29.696Z,19.71
2022-09-17T23:53:57.500Z,19.76
2022-09-17T23:56:25.765Z,19.71
2022-09-17T23:58:54.454Z,19.75
